IGO0011 VIDP-LTFM
Flight info
| Callsign | IGO0011 |
|---|---|
| Flight time | N/A |
| Altitude | 32000 |
| Route | SURAM7G SURAM G333 MERUN L750 RANAH/N0464F340 B449 DUKAN N449 SULEL M747 AGDAM DCT MATAL DCT NOLGA UN61 TBN/N0462F360 UM11 CRM UL746 GOKPA UM10 HAKAN UW702 GUMRU UT315 NUGBA |
| Aircraft | A21N/M-SDE3FGHIRWY/LB1 |
Departure
| Time | 2026-05-05 02:46 |
|---|---|
| Airport | Indira Gandhi International Airport (VIDP) |
Arrival
| Time | N/A |
|---|---|
| Airport | İstanbul Airport (LTFM) |
| Time | Latitude | Longitude | Altitude | Speed | Heading |
|---|---|---|---|---|---|
| 2026-05-05 02:11 | 28.55594 | 77.08102 | 781 ft | 0 kts | 149° |
| 2026-05-05 02:35 | 28.55604 | 77.08095 | 781 ft | 2 kts | 147° |
| 2026-05-05 02:35 | 28.55617 | 77.08086 | 781 ft | 2 kts | 150° |
| 2026-05-05 02:35 | 28.55630 | 77.08077 | 781 ft | 2 kts | 149° |
| 2026-05-05 02:35 | 28.55643 | 77.08069 | 781 ft | 2 kts | 149° |
| 2026-05-05 02:36 | 28.55656 | 77.08061 | 781 ft | 2 kts | 149° |
| 2026-05-05 02:36 | 28.55665 | 77.08049 | 781 ft | 2 kts | 98° |
| 2026-05-05 02:36 | 28.55662 | 77.08033 | 781 ft | 2 kts | 50° |
| 2026-05-05 02:36 | 28.55653 | 77.08019 | 781 ft | 2 kts | 62° |
| 2026-05-05 02:37 | 28.55648 | 77.08009 | 781 ft | 0 kts | 60° |
| 2026-05-05 02:37 | 28.55647 | 77.08008 | 781 ft | 0 kts | 59° |
| 2026-05-05 02:39 | 28.55648 | 77.08009 | 781 ft | 0 kts | 59° |
| 2026-05-05 02:39 | 28.55650 | 77.08014 | 781 ft | 1 kts | 59° |
| 2026-05-05 02:40 | 28.55655 | 77.08023 | 781 ft | 2 kts | 59° |
| 2026-05-05 02:40 | 28.55671 | 77.08053 | 781 ft | 6 kts | 59° |
| 2026-05-05 02:40 | 28.55702 | 77.08112 | 781 ft | 10 kts | 58° |
| 2026-05-05 02:40 | 28.55760 | 77.08162 | 781 ft | 10 kts | 15° |
| 2026-05-05 02:41 | 28.55834 | 77.08169 | 781 ft | 10 kts | 337° |
| 2026-05-05 02:41 | 28.55899 | 77.08127 | 781 ft | 10 kts | 327° |
| 2026-05-05 02:41 | 28.55964 | 77.08081 | 781 ft | 11 kts | 329° |
| 2026-05-05 02:41 | 28.56019 | 77.08025 | 781 ft | 10 kts | 294° |
| 2026-05-05 02:42 | 28.56039 | 77.07941 | 781 ft | 10 kts | 289° |
| 2026-05-05 02:42 | 28.56101 | 77.07907 | 781 ft | 10 kts | 7° |
| 2026-05-05 02:42 | 28.56172 | 77.07928 | 781 ft | 10 kts | 14° |
| 2026-05-05 02:42 | 28.56245 | 77.07949 | 781 ft | 11 kts | 14° |
| 2026-05-05 02:43 | 28.56327 | 77.07973 | 781 ft | 12 kts | 14° |
| 2026-05-05 02:43 | 28.56418 | 77.07998 | 781 ft | 13 kts | 16° |
| 2026-05-05 02:43 | 28.56482 | 77.08067 | 781 ft | 13 kts | 60° |
| 2026-05-05 02:43 | 28.56527 | 77.08158 | 781 ft | 13 kts | 61° |
| 2026-05-05 02:44 | 28.56570 | 77.08249 | 781 ft | 13 kts | 61° |
| 2026-05-05 02:44 | 28.56614 | 77.08338 | 781 ft | 13 kts | 62° |
| 2026-05-05 02:44 | 28.56657 | 77.08431 | 781 ft | 13 kts | 61° |
| 2026-05-05 02:44 | 28.56698 | 77.08522 | 781 ft | 12 kts | 74° |
| 2026-05-05 02:45 | 28.56691 | 77.08635 | 781 ft | 19 kts | 104° |
| 2026-05-05 02:45 | 28.56624 | 77.08926 | 781 ft | 70 kts | 104° |
| 2026-05-05 02:45 | 28.56441 | 77.09722 | 781 ft | 134 kts | 104° |
| 2026-05-05 02:45 | 28.56157 | 77.10935 | 826 ft | 177 kts | 104° |
| 2026-05-05 02:46 | 28.55819 | 77.12264 | 1312 ft | 178 kts | 105° |
| 2026-05-05 02:46 | 28.55476 | 77.13626 | 1901 ft | 181 kts | 101° |
| 2026-05-05 02:46 | 28.55194 | 77.14968 | 2672 ft | 172 kts | 103° |
| 2026-05-05 02:46 | 28.54898 | 77.16283 | 3143 ft | 178 kts | 103° |
| 2026-05-05 02:47 | 28.54570 | 77.17717 | 3418 ft | 195 kts | 103° |
| 2026-05-05 02:47 | 28.54215 | 77.19271 | 3738 ft | 212 kts | 104° |